Temp: 4.1°C   Baro: 1034.3mb
  Wind: 0.0mph   Dir: SSW (196°)
  Rain: 0.0mm (0.0mm/hr)
  Solar: 0W/m2  Hum: 85%

Historic data

Bath Spa Weather Station Historical Data
Daily Summary for October 15, 2021 Units:  English    Metric   Both
Daily Weekly Monthly Yearly Custom
  High: Low: Average:
Temperature: 58.6 °F 53 °F 55.3 °F
Dew Point: 53.7 °F 50.2 °F 51.9 °F
Humidity: 93% 77% 86%
Wind Speed: 4.6mph 0mph 1.3mph
Wind Gust: 9mph - -
Wind- - ESE
Pressure: 30.20 in 30.08 in -
Precipitation: 0.00 in    
Historical Graphs
 
 
Tabular Data for October 15, 2021
Time Temperature Dew Point Pressure Wind Wind Speed Wind Gust Humidity Rainfall Rate (Hourly) solar
00:09 55.2 °F 52.7 °F 30.12 in West 2.4 mph 5 mph 88% 0.00 in 0 W/m2
00:14 55.2 °F 52.7 °F 30.12 in West 2.8 mph 5 mph 88% 0.00 in 0 W/m2
00:19 55 °F 52.5 °F 30.12 in West 2.4 mph 5 mph 88% 0.00 in 0 W/m2
00:24 55.1 °F 52.6 °F 30.12 in West 2.5 mph 5 mph 88% 0.00 in 0 W/m2
00:29 55 °F 52.5 °F 30.12 in West 1.6 mph 5 mph 88% 0.00 in 0 W/m2
00:34 55 °F 52.5 °F 30.12 in West 2.8 mph 5 mph 88% 0.00 in 0 W/m2
00:39 55 °F 52.6 °F 30.11 in West 2.5 mph 5 mph 88.4% 0.00 in 0 W/m2
00:44 55 °F 52.7 °F 30.11 in West 2 mph 4 mph 89% 0.00 in 0 W/m2
00:49 55 °F 52.7 °F 30.11 in West 2.1 mph 4 mph 89% 0.00 in 0 W/m2
00:54 54.9 °F 52.6 °F 30.11 in West 2.2 mph 4 mph 89% 0.00 in 0 W/m2
00:59 54.9 °F 52.6 °F 30.11 in West 1.3 mph 4 mph 89% 0.00 in 0 W/m2
01:04 55 °F 52.7 °F 30.11 in West 2 mph 4 mph 89% 0.00 in 0 W/m2
01:09 54.9 °F 52.6 °F 30.11 in West 2 mph 4 mph 89% 0.00 in 0 W/m2
01:14 54.9 °F 52.5 °F 30.11 in West 1 mph 4 mph 89% 0.00 in 0 W/m2
01:19 54.9 °F 52.5 °F 30.11 in West 1.6 mph 4 mph 89% 0.00 in 0 W/m2
01:23 55 °F 52.7 °F 30.11 in West 2.5 mph 3 mph 89% 0.00 in 0 W/m2
01:29 55 °F 52.6 °F 30.11 in West 1.5 mph 3 mph 89% 0.00 in 0 W/m2
01:34 55 °F 52.7 °F 30.11 in West 1.8 mph 5 mph 89% 0.00 in 0 W/m2
01:39 55 °F 52.8 °F 30.11 in West 2.1 mph 4 mph 89.2% 0.00 in 0 W/m2
01:44 55 °F 52.7 °F 30.10 in West 1.3 mph 4 mph 89% 0.00 in 0 W/m2
01:49 55 °F 52.7 °F 30.11 in West 1.6 mph 3 mph 89% 0.00 in 0 W/m2
01:54 55 °F 52.7 °F 30.11 in West 1.3 mph 3 mph 89% 0.00 in 0 W/m2
01:59 55 °F 52.8 °F 30.10 in West 1.3 mph 3 mph 89.2% 0.00 in 0 W/m2
02:04 55 °F 52.9 °F 30.10 in West 2 mph 4 mph 89.4% 0.00 in 0 W/m2
02:09 55 °F 53.1 °F 30.10 in West 2 mph 3 mph 90% 0.00 in 0 W/m2
02:14 55 °F 53.1 °F 30.10 in West 1.9 mph 5 mph 90% 0.00 in 0 W/m2
02:19 55 °F 53.1 °F 30.10 in West 1.5 mph 4 mph 90% 0.00 in 0 W/m2
02:24 55 °F 53.1 °F 30.10 in West 2.8 mph 5 mph 90% 0.00 in 0 W/m2
02:29 55 °F 53.1 °F 30.10 in West 1.7 mph 5 mph 90% 0.00 in 0 W/m2
02:34 55 °F 53.1 °F 30.10 in West 1.3 mph 4 mph 90% 0.00 in 0 W/m2
02:39 55 °F 53.1 °F 30.10 in West 0.4 mph 1 mph 90% 0.00 in 0 W/m2
02:44 55 °F 53.1 °F 30.10 in West 0.5 mph 2 mph 90% 0.00 in 0 W/m2
02:49 55 °F 53.1 °F 30.09 in West 1.6 mph 3 mph 90% 0.00 in 0 W/m2
02:54 55 °F 53.1 °F 30.09 in West 2 mph 3 mph 90% 0.00 in 0 W/m2
02:59 54.9 °F 52.9 °F 30.09 in West 2.2 mph 3 mph 90% 0.00 in 0 W/m2
03:04 54.9 °F 52.9 °F 30.09 in West 0.5 mph 3 mph 90% 0.00 in 0 W/m2
03:09 54.9 °F 52.9 °F 30.09 in West 0.8 mph 3 mph 90% 0.00 in 0 W/m2
03:14 54.7 °F 52.7 °F 30.09 in West 1.9 mph 4 mph 90% 0.00 in 0 W/m2
03:19 54.7 °F 52.7 °F 30.09 in West 2 mph 3 mph 90% 0.00 in 0 W/m2
03:24 54.6 °F 52.7 °F 30.09 in West 2.2 mph 4 mph 90.4% 0.00 in 0 W/m2
03:29 54.3 °F 52.3 °F 30.08 in West 1.7 mph 4 mph 90% 0.00 in 0 W/m2
03:34 54.3 °F 52.6 °F 30.08 in West 1.2 mph 4 mph 90.8% 0.00 in 0 W/m2
03:39 54.3 °F 52.7 °F 30.08 in West 0.4 mph 2 mph 91% 0.00 in 0 W/m2
03:44 54.3 °F 52.7 °F 30.08 in West 1.4 mph 3 mph 91% 0.00 in 0 W/m2
03:49 54.1 °F 52.5 °F 30.08 in West 1.2 mph 3 mph 91% 0.00 in 0 W/m2
03:54 54.1 °F 52.5 °F 30.08 in West 0.4 mph 2 mph 91% 0.00 in 0 W/m2
03:59 54 °F 52.3 °F 30.08 in West 1.1 mph 4 mph 91% 0.00 in 0 W/m2
04:04 53.9 °F 52.3 °F 30.08 in West 1.8 mph 4 mph 91% 0.00 in 0 W/m2
04:09 54 °F 52.3 °F 30.08 in West 0.5 mph 3 mph 91% 0.00 in 0 W/m2
04:14 54 °F 52.3 °F 30.08 in West 0.2 mph 2 mph 91% 0.00 in 0 W/m2
04:19 53.9 °F 52.2 °F 30.08 in Calm     91% 0.00 in 0 W/m2
04:24 53.8 °F 52.2 °F 30.08 in Calm     91% 0.00 in 0 W/m2
04:29 53.8 °F 52.2 °F 30.08 in Calm     91% 0.00 in 0 W/m2
04:34 53.5 °F 51.9 °F 30.08 in Calm     91% 0.00 in 0 W/m2
04:39 53.2 °F 51.6 °F 30.08 in Calm     91% 0.00 in 0 W/m2
04:44 53.1 °F 51.4 °F 30.08 in Calm     91% 0.00 in 0 W/m2
04:49 53 °F 51.4 °F 30.08 in Calm     91% 0.00 in 0 W/m2
04:54 53.1 °F 51.5 °F 30.08 in West 0.9 mph 2 mph 91.4% 0.00 in 0 W/m2
04:59 53.3 °F 51.9 °F 30.08 in West 1.2 mph 2 mph 92% 0.00 in 0 W/m2
05:04 53.4 °F 52 °F 30.08 in West 1.3 mph 2 mph 92% 0.00 in 0 W/m2
05:09 53.5 °F 52.1 °F 30.08 in West 1.8 mph 3 mph 92% 0.00 in 0 W/m2
05:14 53.6 °F 52.2 °F 30.08 in West 1.6 mph 3 mph 92% 0.00 in 0 W/m2
05:19 53.8 °F 52.3 °F 30.08 in West 1.1 mph 3 mph 92% 0.00 in 0 W/m2
05:24 53.8 °F 52.3 °F 30.08 in West 1.5 mph 3 mph 92% 0.00 in 0 W/m2
05:29 53.8 °F 52.3 °F 30.09 in West 1.6 mph 3 mph 92% 0.00 in 0 W/m2
05:34 53.8 °F 52.3 °F 30.09 in West 2 mph 3 mph 92% 0.00 in 0 W/m2
05:39 53.8 °F 52.3 °F 30.09 in West 1.4 mph 3 mph 92% 0.00 in 0 W/m2
05:44 54 °F 52.5 °F 30.09 in Calm   1 mph 92% 0.00 in 0 W/m2
05:49 54 °F 52.5 °F 30.08 in Calm   1 mph 92% 0.00 in 0 W/m2
05:54 54 °F 52.5 °F 30.09 in Calm   1 mph 92% 0.00 in 0 W/m2
05:59 53.8 °F 52.3 °F 30.09 in Calm   1 mph 92% 0.00 in 0 W/m2
06:04 53.8 °F 52.3 °F 30.09 in Calm     92% 0.00 in 0 W/m2
06:09 53.8 °F 52.3 °F 30.09 in Calm     92% 0.00 in 0 W/m2
06:14 53.7 °F 52.2 °F 30.08 in Calm     92% 0.00 in 0 W/m2
06:19 53.6 °F 52.4 °F 30.09 in Calm     92.8% 0.00 in 0 W/m2
06:24 53.6 °F 52.5 °F 30.09 in Calm     93% 0.00 in 0 W/m2
06:29 53.6 °F 52.5 °F 30.09 in Calm     93% 0.00 in 0 W/m2
06:34 53.8 °F 52.7 °F 30.09 in Calm     93% 0.00 in 0 W/m2
06:39 53.8 °F 52.7 °F 30.09 in Calm     93% 0.00 in 0 W/m2
06:44 53.8 °F 52.7 °F 30.09 in Calm     93% 0.00 in 0 W/m2
06:49 53.8 °F 52.7 °F 30.09 in Calm     93% 0.00 in 0 W/m2
06:54 53.8 °F 52.7 °F 30.09 in Calm     93% 0.00 in 0 W/m2
06:59 53.8 °F 52.7 °F 30.09 in Calm     93% 0.00 in 0 W/m2
07:04 53.7 °F 52.5 °F 30.09 in Calm     92.8% 0.00 in 0 W/m2
07:09 53.6 °F 52.4 °F 30.09 in Calm     92.6% 0.00 in 0 W/m2
07:14 53.6 °F 52.5 °F 30.09 in West 0.7 mph 2 mph 93% 0.00 in 0 W/m2
07:19 53.6 °F 52.5 °F 30.09 in Calm   1 mph 93% 0.00 in 0 W/m2
07:24 53.6 °F 52.5 °F 30.09 in Calm     93% 0.00 in 0 W/m2
07:29 53.6 °F 52.5 °F 30.09 in West 0.2 mph 1 mph 93% 0.00 in 0 W/m2
07:34 53.4 °F 52.3 °F 30.09 in West 0.8 mph 2 mph 93% 0.00 in 0 W/m2
07:39 53.4 °F 52.3 °F 30.09 in Calm     93% 0.00 in 0 W/m2
07:44 53.5 °F 52.4 °F 30.09 in Calm     93% 0.00 in 9 W/m2
07:49 53.4 °F 52.3 °F 30.09 in West 0.2 mph 1 mph 93% 0.00 in 14 W/m2
07:54 53.4 °F 52.3 °F 30.09 in Calm   1 mph 93% 0.00 in 14 W/m2
07:59 53.4 °F 52.3 °F 30.09 in West 0.2 mph 1 mph 93% 0.00 in 16 W/m2
08:04 53.6 °F 52.5 °F 30.10 in West 0.4 mph 2 mph 93% 0.00 in 18 W/m2
08:09 53.9 °F 52.8 °F 30.10 in Calm     93% 0.00 in 21 W/m2
08:14 54 °F 53 °F 30.10 in Calm     93% 0.00 in 23 W/m2
08:19 54.1 °F 53 °F 30.10 in Calm   1 mph 93% 0.00 in 26 W/m2
08:24 54.4 °F 53.3 °F 30.11 in Calm     93% 0.00 in 26 W/m2
08:29 54.6 °F 53.5 °F 30.11 in Calm     93% 0.00 in 25 W/m2
08:34 54.3 °F 53.2 °F 30.11 in Calm     93% 0.00 in 19 W/m2
08:39 54.1 °F 53.1 °F 30.11 in Calm     93% 0.00 in 19 W/m2
08:44 54.1 °F 53.1 °F 30.11 in Calm     93% 0.00 in 21 W/m2
08:49 54.2 °F 53.1 °F 30.11 in Calm     93% 0.00 in 23 W/m2
08:54 54.3 °F 53.2 °F 30.12 in Calm     93% 0.00 in 25 W/m2
08:59 54.5 °F 53.4 °F 30.12 in West 0.4 mph 2 mph 93% 0.00 in 32 W/m2
09:04 54.7 °F 53.6 °F 30.12 in Calm     93% 0.00 in 51 W/m2
09:09 54.8 °F 53.7 °F 30.12 in West 2.4 mph 5 mph 93% 0.00 in 58 W/m2
09:14 54.3 °F 53.2 °F 30.12 in WNW 3.6 mph 9 mph 93% 0.00 in 51 W/m2
09:19 54.4 °F 53.3 °F 30.13 in NW 2.7 mph 6 mph 93% 0.00 in 30 W/m2
09:24 54.7 °F 53.6 °F 30.13 in NW 3.1 mph 6 mph 93% 0.00 in 42 W/m2
09:29 54.7 °F 53.5 °F 30.13 in NW 4.1 mph 7 mph 92.8% 0.00 in 60 W/m2
09:34 54.7 °F 53.2 °F 30.13 in NNW 4.6 mph 8 mph 92% 0.00 in 77 W/m2
09:39 54.7 °F 53.2 °F 30.14 in NNW 2 mph 7 mph 92% 0.00 in 100 W/m2
09:44 54.7 °F 53.1 °F 30.14 in North 2.8 mph 9 mph 91% 0.00 in 93 W/m2
09:49 54.7 °F 52.9 °F 30.14 in North 1.6 mph 6 mph 90.6% 0.00 in 102 W/m2
09:54 54.8 °F 52.7 °F 30.14 in North 0.9 mph 4 mph 89.6% 0.00 in 114 W/m2
09:59 54.9 °F 52.5 °F 30.14 in North 1.6 mph 6 mph 89% 0.00 in 111 W/m2
10:04 54.9 °F 52.4 °F 30.14 in North 1.6 mph 4 mph 88% 0.00 in 123 W/m2
10:09 55 °F 52.3 °F 30.15 in NNE 2.8 mph 9 mph 87.2% 0.00 in 121 W/m2
10:14 55.3 °F 52.4 °F 30.15 in Calm   3 mph 87% 0.00 in 118 W/m2
10:19 55.5 °F 52.3 °F 30.15 in NNE 2.3 mph 4 mph 86% 0.00 in 144 W/m2
10:24 55.3 °F 51.8 °F 30.15 in NNE 0.9 mph 3 mph 85.4% 0.00 in 144 W/m2
10:29 55.5 °F 51.9 °F 30.15 in NNE 0.8 mph 3 mph 85% 0.00 in 135 W/m2
10:34 55.7 °F 52.1 °F 30.15 in NNE 0.9 mph 3 mph 85% 0.00 in 113 W/m2
10:39 55.8 °F 51.8 °F 30.15 in NNE 2.4 mph 6 mph 84% 0.00 in 109 W/m2
10:44 55.6 °F 51.6 °F 30.16 in NNE 2.5 mph 5 mph 84% 0.00 in 111 W/m2
10:49 55.6 °F 51.5 °F 30.16 in NNE 0.2 mph 3 mph 83.3% 0.00 in 109 W/m2
10:54 55.8 °F 51.9 °F 30.16 in NNE 3.3 mph 6 mph 84% 0.00 in 111 W/m2
10:59 55.8 °F 51.7 °F 30.16 in NNE 2.4 mph 6 mph 83.2% 0.00 in 127 W/m2
11:04 55.7 °F 51.5 °F 30.16 in NNE 3.6 mph 6 mph 83% 0.00 in 128 W/m2
11:09 55.6 °F 51.4 °F 30.16 in NNE 2.5 mph 5 mph 83% 0.00 in 128 W/m2
11:14 55.8 °F 51.6 °F 30.16 in NNE 2.2 mph 5 mph 83% 0.00 in 130 W/m2
11:19 55.8 °F 51.6 °F 30.16 in NNE 2.6 mph 4 mph 83% 0.00 in 102 W/m2
11:24 56 °F 51.9 °F 30.16 in NNE 0.8 mph 6 mph 83% 0.00 in 116 W/m2
11:29 56.5 °F 52.3 °F 30.16 in NNE 0.8 mph 4 mph 83% 0.00 in 113 W/m2
11:34 56.4 °F 52 °F 30.16 in NNE 2.4 mph 7 mph 82.4% 0.00 in 125 W/m2
11:39 56.2 °F 51.7 °F 30.16 in NNE 2.2 mph 6 mph 82% 0.00 in 141 W/m2
11:44 56.4 °F 51.9 °F 30.16 in NNE 1.4 mph 5 mph 82% 0.00 in 171 W/m2
11:49 56.5 °F 52 °F 30.16 in NNE 2.6 mph 5 mph 82% 0.00 in 160 W/m2
11:54 56.5 °F 52 °F 30.17 in NNE 1.9 mph 4 mph 82% 0.00 in 111 W/m2
11:59 56.6 °F 52.1 °F 30.17 in NNE 2.8 mph 7 mph 82% 0.00 in 130 W/m2
12:04 56.7 °F 52.3 °F 30.17 in NNE 3 mph 6 mph 82.5% 0.00 in 179 W/m2
12:09 56.7 °F 52.4 °F 30.17 in NNE 2.5 mph 6 mph 82.8% 0.00 in 192 W/m2
12:14 56.6 °F 52.4 °F 30.17 in NNE 2.5 mph 6 mph 83% 0.00 in 163 W/m2
12:19 56.7 °F 52.5 °F 30.18 in NNE 1.9 mph 5 mph 83% 0.00 in 153 W/m2
12:24 56.3 °F 52.2 °F 30.18 in NNE 3.6 mph 7 mph 83% 0.00 in 167 W/m2
12:29 56.1 °F 52 °F 30.18 in NNE 2.3 mph 6 mph 83% 0.00 in 135 W/m2
12:34 55.9 °F 51.8 °F 30.18 in NNE 3.7 mph 8 mph 83% 0.00 in 90 W/m2
12:39 55.9 °F 51.8 °F 30.19 in NNE 2.8 mph 6 mph 83% 0.00 in 95 W/m2
12:44 55.9 °F 51.8 °F 30.18 in NNE 0.8 mph 6 mph 83% 0.00 in 98 W/m2
12:49 56.2 °F 52.1 °F 30.18 in NNE 0.8 mph 3 mph 83% 0.00 in 114 W/m2
12:54 56.1 °F 52 °F 30.18 in NNE 1 mph 4 mph 83% 0.00 in 149 W/m2
12:59 55.8 °F 51.3 °F 30.18 in NNE 3.2 mph 6 mph 82% 0.00 in 186 W/m2
13:04 55.9 °F 51.4 °F 30.18 in NNE 2.5 mph 6 mph 82% 0.00 in 234 W/m2
13:09 56.4 °F 51.9 °F 30.18 in NNE 1.7 mph 6 mph 82% 0.00 in 223 W/m2
13:14 56.7 °F 51.9 °F 30.18 in NNE 3.3 mph 9 mph 81% 0.00 in 283 W/m2
13:19 57.2 °F 52 °F 30.19 in NNE 4 mph 7 mph 80.2% 0.00 in 304 W/m2
13:24 57.5 °F 52.2 °F 30.19 in NNE 1.5 mph 6 mph 79.6% 0.00 in 352 W/m2
13:29 58.3 °F 52.7 °F 30.18 in NNE 2.3 mph 6 mph 78.8% 0.00 in 323 W/m2
13:34 58.6 °F 52.5 °F 30.18 in NNE 3.3 mph 6 mph 77.6% 0.00 in 366 W/m2
13:39 58.3 °F 52.3 °F 30.18 in NNE 2 mph 4 mph 78% 0.00 in 229 W/m2
13:44 57.7 °F 51.8 °F 30.18 in NE 1.9 mph 8 mph 78% 0.00 in 225 W/m2
13:49 57.1 °F 51.4 °F 30.18 in NE 2.4 mph 7 mph 78.8% 0.00 in 232 W/m2
13:54 57.1 °F 51.7 °F 30.18 in NE 3.1 mph 7 mph 79.6% 0.00 in 176 W/m2
13:59 57.4 °F 52.2 °F 30.18 in NE 2.5 mph 7 mph 80% 0.00 in 132 W/m2
14:04 57.2 °F 51.7 °F 30.18 in NE 1.6 mph 5 mph 79.2% 0.00 in 146 W/m2
14:09 57 °F 51.5 °F 30.18 in NE 2.8 mph 5 mph 79.2% 0.00 in 156 W/m2
14:14 57.1 °F 51.9 °F 30.18 in NE 0.8 mph 5 mph 80% 0.00 in 165 W/m2
14:19 57.5 °F 52.3 °F 30.18 in NE 2 mph 4 mph 80% 0.00 in 163 W/m2
14:24 57.9 °F 52.5 °F 30.18 in NE 2.4 mph 5 mph 79.6% 0.00 in 130 W/m2
14:29 57.7 °F 52.2 °F 30.18 in NE 2 mph 5 mph 79% 0.00 in 128 W/m2
14:34 57.7 °F 52.2 °F 30.18 in NE 1 mph 4 mph 79% 0.00 in 142 W/m2
14:39 57.6 °F 51.8 °F 30.17 in NE 0.7 mph 3 mph 78.4% 0.00 in 156 W/m2
14:44 57.8 °F 52.3 °F 30.17 in NE 2 mph 4 mph 79% 0.00 in 144 W/m2
14:49 58.1 °F 52.5 °F 30.18 in NE 0.8 mph 4 mph 79% 0.00 in 107 W/m2
14:54 58.3 °F 52.6 °F 30.18 in NE 0.7 mph 3 mph 78.8% 0.00 in 88 W/m2
14:59 57.8 °F 51.9 °F 30.18 in NE 2.1 mph 4 mph 78% 0.00 in 93 W/m2
15:04 57.4 °F 51.4 °F 30.18 in NE 1.6 mph 3 mph 78% 0.00 in 130 W/m2
15:09 57.4 °F 51.7 °F 30.18 in NE 1.2 mph 4 mph 78.8% 0.00 in 162 W/m2
15:14 57.7 °F 52.1 °F 30.18 in NE 1.4 mph 4 mph 79% 0.00 in 211 W/m2
15:19 58.2 °F 52.6 °F 30.18 in NE 1.4 mph 4 mph 79% 0.00 in 195 W/m2
15:24 58.4 °F 52.5 °F 30.18 in NE 0.4 mph 4 mph 78.4% 0.00 in 155 W/m2
15:29 57.9 °F 52 °F 30.18 in NE 1.2 mph 3 mph 78% 0.00 in 149 W/m2
15:34 58 °F 52.1 °F 30.18 in NE 1.4 mph 3 mph 78% 0.00 in 139 W/m2
15:39 58.2 °F 52.3 °F 30.18 in NE 1.4 mph 3 mph 78% 0.00 in 116 W/m2
15:44 58.5 °F 52.5 °F 30.17 in NE 0.8 mph 3 mph 78% 0.00 in 107 W/m2
15:49 58.5 °F 52.6 °F 30.17 in NE 1.6 mph 4 mph 78% 0.00 in 104 W/m2
15:54 58.6 °F 52.7 °F 30.17 in NE 0.5 mph 2 mph 78% 0.00 in 100 W/m2
15:59 58.6 °F 52.7 °F 30.17 in NE 0.6 mph 3 mph 78% 0.00 in 83 W/m2
16:04 58.6 °F 52.4 °F 30.17 in NE 1.2 mph 3 mph 77.2% 0.00 in 100 W/m2
16:09 58.6 °F 52.3 °F 30.17 in NE 0.4 mph 3 mph 77% 0.00 in 100 W/m2
16:14 58.5 °F 52.2 °F 30.17 in NE 1 mph 3 mph 77% 0.00 in 91 W/m2
16:19 58.2 °F 51.9 °F 30.17 in NE 2.1 mph 5 mph 77% 0.00 in 104 W/m2
16:24 57.8 °F 51.8 °F 30.16 in NE 2 mph 4 mph 77.8% 0.00 in 105 W/m2
16:29 57.5 °F 51.5 °F 30.16 in NE 0.5 mph 3 mph 78% 0.00 in 102 W/m2
16:34 57.7 °F 52 °F 30.17 in NE 1.2 mph 2 mph 78.8% 0.00 in 86 W/m2
16:39 57.7 °F 52 °F 30.17 in NE 2.5 mph 4 mph 78.6% 0.00 in 69 W/m2
16:44 57.7 °F 51.9 °F 30.17 in NE 0.8 mph 3 mph 78.2% 0.00 in 63 W/m2
16:49 57.9 °F 52 °F 30.17 in Calm   2 mph 78% 0.00 in 54 W/m2
16:54 57.9 °F 52 °F 30.17 in NE 0.2 mph 2 mph 78% 0.00 in 58 W/m2
16:59 58.1 °F 52.2 °F 30.17 in NE 1.5 mph 3 mph 78% 0.00 in 60 W/m2
17:04 57.9 °F 52 °F 30.17 in NE 0.8 mph 2 mph 78% 0.00 in 69 W/m2
17:09 58.1 °F 52.2 °F 30.17 in NE 0.5 mph 2 mph 78% 0.00 in 69 W/m2
17:14 57.9 °F 52 °F 30.17 in NE 0.6 mph 3 mph 78% 0.00 in 65 W/m2
17:19 57.7 °F 51.8 °F 30.17 in NE 0.5 mph 2 mph 78% 0.00 in 54 W/m2
17:24 57.7 °F 51.8 °F 30.17 in NE 0.2 mph 1 mph 78% 0.00 in 42 W/m2
17:29 57.6 °F 51.6 °F 30.17 in NE 0.6 mph 3 mph 78% 0.00 in 32 W/m2
17:34 57.4 °F 51.4 °F 30.17 in NE 1.3 mph 2 mph 78% 0.00 in 30 W/m2
17:39 57.2 °F 51.3 °F 30.17 in NE 1.5 mph 3 mph 78.2% 0.00 in 30 W/m2
17:44 56.9 °F 51.3 °F 30.17 in NE 2.8 mph 5 mph 79% 0.00 in 26 W/m2
17:49 56.7 °F 51.1 °F 30.17 in NE 1.7 mph 5 mph 79% 0.00 in 21 W/m2
17:54 56.7 °F 51.3 °F 30.17 in NE 2 mph 3 mph 79.6% 0.00 in 16 W/m2
17:59 56.7 °F 51.4 °F 30.17 in NE 1.4 mph 4 mph 80% 0.00 in 14 W/m2
18:04 56.5 °F 51.3 °F 30.17 in NE 2.1 mph 5 mph 80% 0.00 in 11 W/m2
18:09 56.5 °F 51.3 °F 30.18 in NE 0.4 mph 4 mph 80% 0.00 in 5 W/m2
18:14 56.4 °F 51.4 °F 30.18 in NE 1.7 mph 4 mph 80.6% 0.00 in 0 W/m2
18:19 56.1 °F 51.3 °F 30.18 in NE 0.8 mph 2 mph 81% 0.00 in 0 W/m2
18:24 56.1 °F 51.3 °F 30.18 in NE 1.3 mph 4 mph 81% 0.00 in 0 W/m2
18:29 55.9 °F 51.1 °F 30.18 in NE 0.6 mph 3 mph 81% 0.00 in 0 W/m2
18:34 55.9 °F 51 °F 30.18 in NE 1.2 mph 3 mph 81% 0.00 in 0 W/m2
18:39 55.8 °F 50.9 °F 30.19 in NE 1.2 mph 4 mph 81% 0.00 in 0 W/m2
18:44 55.8 °F 50.9 °F 30.19 in NE 0.5 mph 3 mph 81% 0.00 in 0 W/m2
18:49 55.8 °F 50.9 °F 30.19 in NE 1 mph 3 mph 81% 0.00 in 0 W/m2
18:54 55.6 °F 50.7 °F 30.18 in NE 0.6 mph 3 mph 81% 0.00 in 0 W/m2
18:59 55.6 °F 50.7 °F 30.18 in NE 1 mph 2 mph 81% 0.00 in 0 W/m2
19:04 55.4 °F 50.5 °F 30.18 in NE 0.9 mph 3 mph 81% 0.00 in 0 W/m2
19:09 55.2 °F 50.4 °F 30.18 in NE 1 mph 3 mph 81% 0.00 in 0 W/m2
19:14 55.2 °F 50.4 °F 30.19 in NE 0.9 mph 2 mph 81% 0.00 in 0 W/m2
19:19 55 °F 50.4 °F 30.18 in NE 0.8 mph 3 mph 81.6% 0.00 in 0 W/m2
19:24 55 °F 50.4 °F 30.19 in NE 1.6 mph 3 mph 81.6% 0.00 in 0 W/m2
19:29 55 °F 50.5 °F 30.19 in Calm   3 mph 82% 0.00 in 0 W/m2
19:34 55 °F 50.5 °F 30.19 in NE 0.5 mph 2 mph 82% 0.00 in 0 W/m2
19:39 55 °F 50.5 °F 30.19 in NE 0.6 mph 2 mph 82% 0.00 in 0 W/m2
19:44 54.9 °F 50.4 °F 30.19 in NE 1.5 mph 3 mph 82% 0.00 in 0 W/m2
19:49 54.9 °F 50.4 °F 30.19 in NE 1.3 mph 3 mph 82% 0.00 in 0 W/m2
19:54 54.7 °F 50.4 °F 30.19 in NE 1.4 mph 4 mph 82.6% 0.00 in 0 W/m2
19:59 54.7 °F 50.5 °F 30.19 in NE 2 mph 4 mph 83% 0.00 in 0 W/m2
20:04 54.7 °F 50.5 °F 30.19 in NE 1.5 mph 5 mph 83% 0.00 in 0 W/m2
20:09 54.7 °F 50.3 °F 30.19 in NE 0.4 mph 3 mph 82.2% 0.00 in 0 W/m2
20:14 54.7 °F 50.2 °F 30.19 in Calm   1 mph 82% 0.00 in 0 W/m2
20:19 54.7 °F 50.2 °F 30.19 in NE 0.5 mph 3 mph 82% 0.00 in 0 W/m2
20:24 54.7 °F 50.2 °F 30.19 in NE 0.4 mph 3 mph 82% 0.00 in 0 W/m2
20:29 54.7 °F 50.2 °F 30.19 in NE 1.8 mph 5 mph 82% 0.00 in 0 W/m2
20:34 54.7 °F 50.2 °F 30.19 in NE 1.7 mph 4 mph 82% 0.00 in 0 W/m2
20:39 54.7 °F 50.2 °F 30.19 in NE 0.9 mph 2 mph 82% 0.00 in 0 W/m2
20:44 54.7 °F 50.2 °F 30.19 in NE 2.1 mph 7 mph 82% 0.00 in 0 W/m2
20:49 54.8 °F 50.3 °F 30.19 in NE 2.4 mph 7 mph 82% 0.00 in 0 W/m2
20:54 54.9 °F 50.3 °F 30.19 in NE 2.8 mph 5 mph 81.8% 0.00 in 0 W/m2
20:59 54.9 °F 50.4 °F 30.19 in NE 2.4 mph 5 mph 82% 0.00 in 0 W/m2
21:04 54.9 °F 50.4 °F 30.19 in NE 2.1 mph 7 mph 82% 0.00 in 0 W/m2
21:09 55 °F 50.5 °F 30.19 in NE 0.6 mph 3 mph 82% 0.00 in 0 W/m2
21:14 55 °F 50.5 °F 30.19 in NE 0.8 mph 4 mph 82% 0.00 in 0 W/m2
21:19 54.9 °F 50.4 °F 30.19 in NE 1 mph 4 mph 82% 0.00 in 0 W/m2
21:24 54.9 °F 50.7 °F 30.19 in NE 1 mph 4 mph 83% 0.00 in 0 W/m2
21:29 54.9 °F 50.7 °F 30.19 in NE 0.8 mph 2 mph 83% 0.00 in 0 W/m2
21:34 54.9 °F 50.7 °F 30.19 in NE 0.8 mph 3 mph 83% 0.00 in 0 W/m2
21:39 54.8 °F 50.8 °F 30.19 in NE 0.4 mph 2 mph 83.6% 0.00 in 0 W/m2
21:44 54.7 °F 50.9 °F 30.19 in Calm   2 mph 84% 0.00 in 0 W/m2
21:49 54.7 °F 50.9 °F 30.19 in Calm     84% 0.00 in 0 W/m2
21:54 54.6 °F 50.8 °F 30.19 in NE 1.2 mph 2 mph 84% 0.00 in 0 W/m2
21:59 54.3 °F 50.5 °F 30.19 in NE 0.6 mph 2 mph 84.2% 0.00 in 0 W/m2
22:04 54.3 °F 50.7 °F 30.19 in NE 1.6 mph 3 mph 85% 0.00 in 0 W/m2
22:09 54.3 °F 50.7 °F 30.19 in NE 0.2 mph 2 mph 85% 0.00 in 0 W/m2
22:14 54.3 °F 50.7 °F 30.19 in NE 1 mph 3 mph 85% 0.00 in 0 W/m2
22:19 54.3 °F 50.7 °F 30.19 in NE 0.4 mph 3 mph 85% 0.00 in 0 W/m2
22:24 54.3 °F 50.7 °F 30.19 in NE 0.5 mph 3 mph 85% 0.00 in 0 W/m2
22:29 54.3 °F 50.7 °F 30.19 in NE 1.7 mph 3 mph 85% 0.00 in 0 W/m2
22:34 54.3 °F 50.7 °F 30.19 in NE 0.8 mph 2 mph 85% 0.00 in 0 W/m2
22:39 54.2 °F 50.6 °F 30.19 in NE 0.9 mph 2 mph 85% 0.00 in 0 W/m2
22:44 54.1 °F 50.4 °F 30.19 in NE 0.7 mph 2 mph 84% 0.00 in 0 W/m2
22:49 54.1 °F 50.4 °F 30.19 in NE 1.4 mph 3 mph 84.4% 0.00 in 0 W/m2
22:54 54.1 °F 50.5 °F 30.19 in NE 0.4 mph 2 mph 85% 0.00 in 0 W/m2
22:59 54 °F 50.4 °F 30.19 in Calm   1 mph 85% 0.00 in 0 W/m2
23:04 54 °F 50.4 °F 30.19 in Calm   1 mph 85% 0.00 in 0 W/m2
23:09 54 °F 50.4 °F 30.19 in NE 0.8 mph 2 mph 85% 0.00 in 0 W/m2
23:14 54 °F 50.4 °F 30.19 in NE 0.2 mph 2 mph 85% 0.00 in 0 W/m2
23:19 54 °F 50.4 °F 30.19 in NE 0.4 mph 2 mph 85% 0.00 in 0 W/m2
23:24 54 °F 50.4 °F 30.19 in NE 0.6 mph 3 mph 85% 0.00 in 0 W/m2
23:29 54 °F 50.4 °F 30.20 in NE 0.4 mph 2 mph 85% 0.00 in 0 W/m2
23:34 54 °F 50.4 °F 30.20 in NE 0.8 mph 3 mph 85% 0.00 in 0 W/m2
23:39 54 °F 50.4 °F 30.20 in NE 1.3 mph 3 mph 85% 0.00 in 0 W/m2
23:44 54 °F 50.5 °F 30.20 in NE 0.4 mph 2 mph 85.4% 0.00 in 0 W/m2
23:49 54 °F 50.7 °F 30.19 in NE 0.7 mph 3 mph 86% 0.00 in 0 W/m2
23:54 53.9 °F 50.6 °F 30.19 in NE 0.8 mph 3 mph 86% 0.00 in 0 W/m2
23:59 53.8 °F 50.5 °F 30.19 in NE 1.2 mph 4 mph 86% 0.00 in 0 W/m2
Bath Spa Weather
Compliments of Weather Underground - 2 mb